メインページ
METAR-TAF:

METAR-TAF

空港 :

ムースニー, オンタリオ州, カナダ

緯度: 51-16N, 経度: 080-39W, 海抜: 10m

現時点の気象観測

当レポートは43分前の02:00(UTC)に作成
西の風 7kt
気温 -18°C
湿度 71%
気圧 1024 hPa
視程: 14.5km
晴天

METAR: CYMO 070200Z AUTO 28007KT 9SM CLR M18/M22 A3023 RMK SLP240

時間: 21:43 (02:43 UTC)

予報

当レポートは3時間5分前の23:38(UTC)に作成
予報は07日の 00時(UTC)から 07日の 12時(UTC)まで有効
西/北西の風 8kt
視程: 10km
高度2000ftの雲は散在している
高度8000ftの千切れ雲あり
07日の 00時(UTC)から 07日の 06時(UTC)まで一時的に
視程: 8.0km
高度2000ftの千切れ雲あり
弱いにわか雪
07日の 0600時(UTC)から
西/南西の風 5kt
視程: 10km
高度1500ftの雲は散在している

TAF: CYMO 062338Z 0700/0712 29008KT P6SM SCT020 BKN080 TEMPO 0700/0706 5SM -SHSN BKN020 FM070600 24005KT P6SM SCT015 RMK FCST BASED ON AUTO OBS. NXT FCST BY 070600Z

4,000以上の空港の気象観測と天気予報(METAR報とTAF報)

利用可能な観測所は地図上に黄色い丸と赤い丸で示す。

丸の上にカーソルを重ねると観測所名を参照できる。

次にクリックすると気象観測と天気予報を参照できる。

マップの切り替え:黒色「×」印の緑ボタンをクリックして拡大、「-」印の緑ボタンをクリックして縮小、緑色の三角印をクリックして隣りの地図に切り替え


METAR-TAF: